Springdale, Maryland
Current Conditions -  °F | °C
As of 6:10 PM on Wednesday 22 Oct 2014 (Local Time) from KADW Reporting Station
Drizzle Drizzle  
Wind Chill: 54°   Ceiling: 3300
Heat Index: 54°   Visibility: 10mi
Dew Point: 50°   Wind: 13mph
Humidity: 88%   Direction: 320°NW
Pressure: 29.91"   Gusts: NA
Location:  38.8741°N, 76.7678°W
Report Text: KADW 222210Z AUTO 32011KT 10SM -DZ OVC033 12/10 A2991 RMK AO2
Loading
Personal Weather Stations






























Interactive Weather Map
Tropical Storm Tracking
New forecast layout! Learn more

10-Day Weather Forecast

Advertisements
Track Severe Weather on mobile